Time;durP1;ratioP1;P1;durP2;ratioP2;P2;SDS_P1;SDS_P2;PMS_P1;PMS_P2;Temp;Humidity;BMP_temperature;BMP_pressure;BME280_temperature;BME280_humidity;BME280_pressure;Samples;Min_cycle;Max_cycle;Signal;HPM_P1;HPM_P2
2022/04/16 00:02:19;;;;;;;6.43;3.40;;;;;;;;;;5025680;28;20617;-79
2022/04/16 00:04:47;;;;;;;4.87;2.90;;;;;;;;;;5024549;28;20298;-79
2022/04/16 00:07:15;;;;;;;6.70;2.90;;;;;;;;;;5022167;28;20215;-79
2022/04/16 00:09:42;;;;;;;8.27;3.20;;;;;;;;;;5025131;28;20239;-80
2022/04/16 00:12:10;;;;;;;5.10;3.33;;;;;;;;;;5025889;28;20218;-79
2022/04/16 00:14:38;;;;;;;5.97;3.23;;;;;;;;;;5023178;28;20287;-80
2022/04/16 00:17:05;;;;;;;5.73;3.40;;;;;;;;;;5030029;28;20235;-80
2022/04/16 00:19:33;;;;;;;7.87;3.13;;;;;;;;;;5031531;28;20275;-79
2022/04/16 00:22:01;;;;;;;5.77;3.30;;;;;;;;;;5025031;28;20290;-79
2022/04/16 00:24:30;;;;;;;6.63;3.17;;;;;;;;;;5025800;28;20302;-80
2022/04/16 00:26:57;;;;;;;4.97;3.17;;;;;;;;;;5027403;28;20196;-80
2022/04/16 00:29:24;;;;;;;5.20;3.20;;;;;;;;;;5021827;28;20225;-80
2022/04/16 00:31:53;;;;;;;5.70;3.43;;;;;;;;;;5022312;28;20232;-79
2022/04/16 00:34:21;;;;;;;5.60;3.23;;;;;;;;;;5020973;28;20628;-80
2022/04/16 00:36:48;;;;;;;5.77;3.53;;;;;;;;;;5024207;28;20204;-79
2022/04/16 00:39:15;;;;;;;6.13;3.53;;;;;;;;;;5021808;28;20340;-78
2022/04/16 00:41:44;;;;;;;6.80;3.53;;;;;;;;;;5029610;28;20318;-80
2022/04/16 00:44:11;;;;;;;7.93;4.07;;;;;;;;;;5027110;28;20223;-79
2022/04/16 00:46:39;;;;;;;8.07;4.43;;;;;;;;;;5028199;28;20272;-79
2022/04/16 00:49:06;;;;;;;6.63;3.77;;;;;;;;;;5031992;28;20238;-80
2022/04/16 00:51:34;;;;;;;8.67;3.93;;;;;;;;;;5027335;28;20243;-81
2022/04/16 00:54:02;;;;;;;6.93;3.80;;;;;;;;;;5026259;28;20208;-80
2022/04/16 00:56:29;;;;;;;6.60;3.83;;;;;;;;;;5028956;28;20231;-79
2022/04/16 00:58:59;;;;;;;6.47;3.87;;;;;;;;;;5025334;28;20214;-80
2022/04/16 01:01:26;;;;;;;6.00;3.80;;;;;;;;;;5025229;28;20235;-80
2022/04/16 01:03:55;;;;;;;5.70;3.90;;;;;;;;;;5026295;28;20200;-80
2022/04/16 01:06:22;;;;;;;6.30;4.00;;;;;;;;;;5024465;28;20211;-80
2022/04/16 01:08:49;;;;;;;7.30;4.00;;;;;;;;;;5024358;28;20208;-80
2022/04/16 01:11:17;;;;;;;7.53;3.87;;;;;;;;;;5027950;28;20720;-80
2022/04/16 01:13:46;;;;;;;5.93;3.67;;;;;;;;;;5033260;28;20239;-80
2022/04/16 01:16:15;;;;;;;6.37;3.90;;;;;;;;;;5028197;28;20206;-80
2022/04/16 01:18:46;;;;;;;7.70;3.67;;;;;;;;;;5032251;28;20231;-79
2022/04/16 01:21:14;;;;;;;8.10;4.77;;;;;;;;;;5030311;28;20223;-79
2022/04/16 01:23:43;;;;;;;7.80;4.37;;;;;;;;;;5032580;28;20232;-81
2022/04/16 01:26:10;;;;;;;8.70;4.40;;;;;;;;;;5025213;28;20306;-78
2022/04/16 01:28:37;;;;;;;6.97;4.63;;;;;;;;;;5022262;28;20254;-79
2022/04/16 01:31:04;;;;;;;7.10;4.37;;;;;;;;;;5025492;28;20241;-79
2022/04/16 01:33:31;;;;;;;14.37;4.90;;;;;;;;;;5018784;28;20208;-79
2022/04/16 01:38:40;;;;;;;9.40;4.20;;;;;;;;;;4983826;28;20200;-79
2022/04/16 01:41:08;;;;;;;7.23;4.57;;;;;;;;;;5020986;28;20306;-79
2022/04/16 01:43:35;;;;;;;7.57;4.37;;;;;;;;;;5025864;28;20255;-80
2022/04/16 01:46:03;;;;;;;8.40;4.27;;;;;;;;;;5027927;28;20208;-78
2022/04/16 01:48:30;;;;;;;8.30;4.60;;;;;;;;;;5026900;28;20195;-80
2022/04/16 01:50:58;;;;;;;8.90;3.83;;;;;;;;;;5019039;28;20232;-80
2022/04/16 01:53:25;;;;;;;8.33;4.70;;;;;;;;;;5026901;28;20681;-80
2022/04/16 01:55:52;;;;;;;6.93;4.47;;;;;;;;;;5026415;28;20721;-80
2022/04/16 01:58:21;;;;;;;8.23;4.50;;;;;;;;;;5027828;28;20250;-79
2022/04/16 02:00:48;;;;;;;8.17;3.97;;;;;;;;;;5023987;28;20640;-79
2022/04/16 02:03:19;;;;;;;11.20;4.60;;;;;;;;;;5022680;28;20212;-80
2022/04/16 02:05:46;;;;;;;8.00;4.40;;;;;;;;;;5021650;28;20396;-80
2022/04/16 02:08:14;;;;;;;9.63;4.83;;;;;;;;;;5020406;28;20208;-79
2022/04/16 02:10:41;;;;;;;9.33;4.40;;;;;;;;;;5023470;28;20243;-80
2022/04/16 02:13:08;;;;;;;8.77;4.83;;;;;;;;;;5025679;28;20299;-79
2022/04/16 02:15:37;;;;;;;9.17;4.97;;;;;;;;;;5021939;28;20593;-80
2022/04/16 02:18:04;;;;;;;7.43;4.50;;;;;;;;;;5020131;28;20242;-79
2022/04/16 02:20:32;;;;;;;9.40;4.67;;;;;;;;;;5016477;28;20255;-79
2022/04/16 02:22:59;;;;;;;7.43;4.67;;;;;;;;;;5020096;28;20212;-79
2022/04/16 02:25:26;;;;;;;11.60;5.50;;;;;;;;;;5019500;28;20284;-79
2022/04/16 02:27:53;;;;;;;9.53;5.77;;;;;;;;;;5021663;28;20461;-80
2022/04/16 02:30:22;;;;;;;10.47;5.83;;;;;;;;;;5024643;28;20235;-79
2022/04/16 02:32:52;;;;;;;11.20;6.43;;;;;;;;;;5019971;28;20663;-80
2022/04/16 02:35:19;;;;;;;10.97;5.60;;;;;;;;;;5022843;28;20310;-80
2022/04/16 02:37:47;;;;;;;10.07;6.07;;;;;;;;;;5020662;28;20196;-78
2022/04/16 02:40:14;;;;;;;11.50;6.50;;;;;;;;;;5025353;28;20866;-78
2022/04/16 02:42:42;;;;;;;11.03;6.60;;;;;;;;;;5025144;28;20200;-78
2022/04/16 02:47:58;;;;;;;13.77;6.70;;;;;;;;;;5025194;28;20206;-80
2022/04/16 02:50:27;;;;;;;20.97;7.70;;;;;;;;;;5020326;28;20248;-79
2022/04/16 02:52:54;;;;;;;12.00;6.90;;;;;;;;;;5024338;28;20199;-79
2022/04/16 02:55:22;;;;;;;17.37;7.83;;;;;;;;;;5022632;28;20216;-80
2022/04/16 02:57:50;;;;;;;12.77;6.80;;;;;;;;;;5018203;28;20646;-80
2022/04/16 03:00:19;;;;;;;14.57;7.67;;;;;;;;;;5020322;28;20314;-83
2022/04/16 03:02:47;;;;;;;15.60;7.37;;;;;;;;;;5028391;28;20218;-78
2022/04/16 03:05:16;;;;;;;14.63;7.50;;;;;;;;;;5029009;28;20212;-80
2022/04/16 03:07:43;;;;;;;15.33;7.70;;;;;;;;;;5023643;28;20299;-79
2022/04/16 03:10:11;;;;;;;15.63;7.70;;;;;;;;;;5024154;28;20667;-80
2022/04/16 03:12:42;;;;;;;14.00;7.50;;;;;;;;;;5021019;28;20701;-80
2022/04/16 03:17:55;;;;;;;14.60;6.83;;;;;;;;;;5023001;28;20334;-80
2022/04/16 03:20:25;;;;;;;13.53;6.87;;;;;;;;;;5025932;28;20220;-79
2022/04/16 03:22:52;;;;;;;13.90;7.30;;;;;;;;;;5024657;28;20200;-79
2022/04/16 03:25:20;;;;;;;14.67;7.47;;;;;;;;;;5027629;28;20200;-78
2022/04/16 03:27:47;;;;;;;15.90;8.13;;;;;;;;;;5024153;28;20287;-79
2022/04/16 03:30:14;;;;;;;15.07;8.10;;;;;;;;;;5030017;28;20318;-80
2022/04/16 03:32:42;;;;;;;14.47;7.57;;;;;;;;;;5027179;28;20437;-79
2022/04/16 03:35:10;;;;;;;14.13;8.03;;;;;;;;;;5052501;22;20254;-85
2022/04/16 03:37:39;;;;;;;16.13;7.87;;;;;;;;;;5024018;28;20204;-83
2022/04/16 03:40:07;;;;;;;13.23;7.40;;;;;;;;;;5027700;28;20204;-84
2022/04/16 03:42:34;;;;;;;12.77;7.53;;;;;;;;;;5026302;28;20200;-82
2022/04/16 03:45:01;;;;;;;16.37;7.33;;;;;;;;;;5023892;28;20597;-84
2022/04/16 03:47:29;;;;;;;17.03;8.77;;;;;;;;;;5025099;28;20211;-84
2022/04/16 03:49:56;;;;;;;16.83;8.13;;;;;;;;;;5028585;28;20738;-81
2022/04/16 03:52:23;;;;;;;15.10;7.67;;;;;;;;;;5029090;28;20204;-82
2022/04/16 04:00:21;;;;;;;15.43;7.57;;;;;;;;;;5004952;28;20216;-83
2022/04/16 04:02:48;;;;;;;16.67;8.13;;;;;;;;;;5027108;28;20200;-83
2022/04/16 04:05:15;;;;;;;15.20;7.50;;;;;;;;;;5023537;28;20232;-83
2022/04/16 04:07:42;;;;;;;17.80;8.93;;;;;;;;;;5023565;28;20287;-85
2022/04/16 04:10:13;;;;;;;18.60;8.47;;;;;;;;;;5024639;28;20739;-85
2022/04/16 04:12:40;;;;;;;16.13;8.50;;;;;;;;;;5027396;28;20259;-83
2022/04/16 04:15:08;;;;;;;15.27;8.00;;;;;;;;;;5040377;28;20227;-82
2022/04/16 04:17:35;;;;;;;15.03;7.97;;;;;;;;;;5036595;28;20267;-82
2022/04/16 04:20:02;;;;;;;16.53;8.70;;;;;;;;;;5032416;28;20228;-83
2022/04/16 04:22:31;;;;;;;16.83;8.40;;;;;;;;;;5029314;28;20208;-81
2022/04/16 04:24:58;;;;;;;17.83;8.07;;;;;;;;;;5032031;28;20567;-81
2022/04/16 04:27:26;;;;;;;16.50;7.83;;;;;;;;;;5030685;28;20271;-83
2022/04/16 04:29:53;;;;;;;14.90;7.87;;;;;;;;;;5034434;28;20271;-82
2022/04/16 04:32:20;;;;;;;15.53;7.97;;;;;;;;;;5032937;28;20216;-81
2022/04/16 04:34:47;;;;;;;19.70;8.37;;;;;;;;;;5030202;28;20235;-83
2022/04/16 04:37:15;;;;;;;16.37;7.97;;;;;;;;;;5027281;28;20251;-83
2022/04/16 04:39:42;;;;;;;15.37;7.57;;;;;;;;;;5027151;28;20218;-82
2022/04/16 04:42:09;;;;;;;17.80;8.40;;;;;;;;;;5024836;28;20358;-84
2022/04/16 04:44:38;;;;;;;15.93;8.07;;;;;;;;;;5026150;28;20246;-84
2022/04/16 04:47:05;;;;;;;18.27;8.93;;;;;;;;;;5028332;28;20596;-83
2022/04/16 04:49:32;;;;;;;17.87;9.80;;;;;;;;;;5032545;28;20212;-81
2022/04/16 04:51:59;;;;;;;17.20;8.80;;;;;;;;;;5025802;28;20235;-83
2022/04/16 04:54:26;;;;;;;18.53;8.53;;;;;;;;;;5025258;28;20231;-82
2022/04/16 04:56:54;;;;;;;19.07;9.70;;;;;;;;;;5025490;28;20222;-83
2022/04/16 04:59:21;;;;;;;19.90;9.60;;;;;;;;;;5028269;28;20215;-82
2022/04/16 05:01:49;;;;;;;18.27;9.50;;;;;;;;;;5029844;28;20242;-82
2022/04/16 05:04:16;;;;;;;20.33;9.77;;;;;;;;;;5028215;28;20223;-81
2022/04/16 05:06:43;;;;;;;18.63;8.67;;;;;;;;;;5028664;28;20212;-83
2022/04/16 05:09:11;;;;;;;21.73;10.07;;;;;;;;;;5031196;28;20621;-81
2022/04/16 05:11:38;;;;;;;17.23;9.17;;;;;;;;;;5032571;28;20230;-82
2022/04/16 05:14:05;;;;;;;22.20;9.87;;;;;;;;;;5028638;28;20260;-82
2022/04/16 05:16:33;;;;;;;19.57;9.53;;;;;;;;;;5031935;28;20203;-82
2022/04/16 05:19:01;;;;;;;19.87;9.97;;;;;;;;;;5029082;28;20200;-82
2022/04/16 05:21:29;;;;;;;21.53;8.83;;;;;;;;;;5031684;28;20226;-80
2022/04/16 05:23:56;;;;;;;17.23;9.27;;;;;;;;;;5031914;28;20239;-80
2022/04/16 05:26:23;;;;;;;21.47;10.17;;;;;;;;;;5032097;28;20212;-82
2022/04/16 05:28:50;;;;;;;17.77;9.20;;;;;;;;;;5030763;28;20283;-81
2022/04/16 05:31:19;;;;;;;19.73;9.73;;;;;;;;;;5033576;28;21620;-81
2022/04/16 05:36:32;;;;;;;19.63;9.67;;;;;;;;;;5034960;28;20210;-82
2022/04/16 05:38:59;;;;;;;20.57;10.57;;;;;;;;;;5033640;28;20213;-82
2022/04/16 05:41:26;;;;;;;17.70;10.23;;;;;;;;;;5031722;28;20200;-82
2022/04/16 05:43:54;;;;;;;18.80;9.40;;;;;;;;;;5029051;28;20295;-83
2022/04/16 05:46:21;;;;;;;20.63;9.03;;;;;;;;;;5031340;28;20211;-83
2022/04/16 05:48:49;;;;;;;17.30;8.73;;;;;;;;;;5024444;28;20208;-82
2022/04/16 05:51:16;;;;;;;19.67;9.27;;;;;;;;;;5030686;28;20285;-82
2022/04/16 05:53:45;;;;;;;20.30;9.67;;;;;;;;;;5028806;28;20246;-82
2022/04/16 05:56:13;;;;;;;16.77;8.33;;;;;;;;;;5028021;28;20242;-82
2022/04/16 05:58:40;;;;;;;14.67;8.10;;;;;;;;;;5028331;28;20211;-83
2022/04/16 06:01:08;;;;;;;18.20;8.50;;;;;;;;;;5029477;28;20204;-82
2022/04/16 06:03:36;;;;;;;15.37;8.27;;;;;;;;;;5028063;28;20235;-82
2022/04/16 06:06:03;;;;;;;13.97;8.03;;;;;;;;;;5033029;28;20953;-83
2022/04/16 06:08:31;;;;;;;25.93;9.83;;;;;;;;;;5035559;28;20204;-83
2022/04/16 06:10:59;;;;;;;15.67;8.27;;;;;;;;;;5033039;28;20227;-84
2022/04/16 06:13:26;;;;;;;19.13;8.93;;;;;;;;;;5041199;28;20208;-80
2022/04/16 06:15:54;;;;;;;18.10;9.40;;;;;;;;;;5045930;28;20200;-80
2022/04/16 06:18:21;;;;;;;16.20;8.83;;;;;;;;;;5047607;28;20183;-83
2022/04/16 06:20:48;;;;;;;16.90;8.37;;;;;;;;;;5028899;28;20208;-84
2022/04/16 06:23:15;;;;;;;16.37;9.10;;;;;;;;;;5030344;28;20200;-83
2022/04/16 06:25:42;;;;;;;20.77;10.03;;;;;;;;;;5030899;28;20204;-84
2022/04/16 06:28:11;;;;;;;16.70;8.70;;;;;;;;;;5029981;28;20218;-84
2022/04/16 06:30:38;;;;;;;18.40;8.80;;;;;;;;;;5030407;28;20200;-83
2022/04/16 06:33:05;;;;;;;17.37;9.87;;;;;;;;;;5029280;28;20726;-83
2022/04/16 06:35:33;;;;;;;14.93;8.47;;;;;;;;;;5031553;28;20258;-84
2022/04/16 06:38:00;;;;;;;15.00;8.07;;;;;;;;;;5029798;28;20212;-83
2022/04/16 06:40:27;;;;;;;18.20;7.93;;;;;;;;;;5033204;28;20236;-82
2022/04/16 06:42:54;;;;;;;10.83;6.33;;;;;;;;;;5030069;28;20211;-82
2022/04/16 06:45:23;;;;;;;12.97;6.70;;;;;;;;;;5028505;28;20764;-82
2022/04/16 06:47:50;;;;;;;17.23;7.60;;;;;;;;;;5030199;28;20678;-82
2022/04/16 06:50:17;;;;;;;12.30;6.30;;;;;;;;;;5030758;28;20272;-82
2022/04/16 06:52:45;;;;;;;10.93;6.23;;;;;;;;;;5031090;28;20291;-82
2022/04/16 06:55:12;;;;;;;11.17;6.53;;;;;;;;;;5029114;28;20314;-82
2022/04/16 06:57:39;;;;;;;11.97;6.10;;;;;;;;;;5028132;28;20271;-82
2022/04/16 07:00:07;;;;;;;11.80;6.40;;;;;;;;;;5030558;28;20678;-82
2022/04/16 07:02:36;;;;;;;10.03;6.40;;;;;;;;;;5031539;28;20212;-83
2022/04/16 07:05:03;;;;;;;11.53;6.60;;;;;;;;;;5031200;28;20231;-82
2022/04/16 07:07:30;;;;;;;11.70;6.27;;;;;;;;;;5028436;28;20230;-81
2022/04/16 07:09:58;;;;;;;14.23;6.30;;;;;;;;;;5024712;28;20722;-83
2022/04/16 07:12:25;;;;;;;11.43;6.23;;;;;;;;;;5028230;28;20679;-83
2022/04/16 07:14:52;;;;;;;14.10;7.07;;;;;;;;;;5031476;28;20334;-82
2022/04/16 07:17:19;;;;;;;11.10;6.50;;;;;;;;;;5026450;28;20454;-83
2022/04/16 07:19:48;;;;;;;11.87;6.27;;;;;;;;;;5027469;28;20766;-83
2022/04/16 07:22:15;;;;;;;8.20;5.27;;;;;;;;;;5025453;28;20204;-84
2022/04/16 07:24:42;;;;;;;10.23;5.87;;;;;;;;;;5027943;28;20291;-83
2022/04/16 07:27:09;;;;;;;9.83;5.57;;;;;;;;;;5025649;28;20204;-83
2022/04/16 07:29:36;;;;;;;10.53;5.67;;;;;;;;;;5028356;28;20577;-84
2022/04/16 07:32:04;;;;;;;9.57;5.23;;;;;;;;;;5028463;28;20599;-81
2022/04/16 07:34:31;;;;;;;11.17;6.03;;;;;;;;;;5028254;28;20232;-83
2022/04/16 07:36:59;;;;;;;9.37;5.33;;;;;;;;;;5029937;28;20573;-81
2022/04/16 07:39:26;;;;;;;10.87;5.57;;;;;;;;;;5030337;28;20294;-84
2022/04/16 07:41:54;;;;;;;9.33;5.13;;;;;;;;;;5030090;28;20222;-84
2022/04/16 07:44:21;;;;;;;6.37;3.50;;;;;;;;;;5028676;28;20250;-83
2022/04/16 07:46:48;;;;;;;7.57;4.00;;;;;;;;;;5030264;28;20215;-81
2022/04/16 07:49:17;;;;;;;7.07;3.70;;;;;;;;;;5026224;28;20211;-85
2022/04/16 07:51:45;;;;;;;7.27;3.80;;;;;;;;;;5028309;28;20253;-84
2022/04/16 07:54:13;;;;;;;6.47;3.53;;;;;;;;;;5029915;28;20259;-84
2022/04/16 07:56:41;;;;;;;6.27;3.77;;;;;;;;;;5028192;28;20275;-85
2022/04/16 07:59:08;;;;;;;6.57;3.67;;;;;;;;;;5028759;28;20207;-82
2022/04/16 08:01:36;;;;;;;9.07;4.57;;;;;;;;;;5027621;28;20255;-84
2022/04/16 08:04:03;;;;;;;7.13;3.83;;;;;;;;;;5023495;28;20254;-83
2022/04/16 08:06:30;;;;;;;7.70;4.27;;;;;;;;;;5027726;28;20561;-82
2022/04/16 08:09:01;;;;;;;7.00;3.87;;;;;;;;;;5030825;28;20298;-84
2022/04/16 08:11:30;;;;;;;5.63;3.70;;;;;;;;;;5026540;28;20235;-81
2022/04/16 08:13:57;;;;;;;6.60;4.07;;;;;;;;;;5023276;28;20242;-84
2022/04/16 08:16:24;;;;;;;5.43;3.60;;;;;;;;;;5024252;28;20634;-84
2022/04/16 08:18:51;;;;;;;6.67;4.07;;;;;;;;;;5028636;28;20215;-84
2022/04/16 08:21:21;;;;;;;6.53;3.87;;;;;;;;;;5021361;28;20207;-81
2022/04/16 08:23:57;;;;;;;6.73;4.17;;;;;;;;;;5036484;28;20250;-81
2022/04/16 08:26:25;;;;;;;8.87;4.20;;;;;;;;;;5032023;28;20559;-82
2022/04/16 08:28:54;;;;;;;7.43;4.47;;;;;;;;;;5035454;28;20246;-81
2022/04/16 08:31:21;;;;;;;7.67;4.33;;;;;;;;;;5037194;28;20228;-81
2022/04/16 08:33:49;;;;;;;8.03;4.47;;;;;;;;;;5035139;28;20231;-83
2022/04/16 08:36:16;;;;;;;9.13;5.00;;;;;;;;;;5037516;28;20211;-82
2022/04/16 08:38:43;;;;;;;8.57;4.50;;;;;;;;;;5039108;28;20659;-83
2022/04/16 08:41:11;;;;;;;9.30;4.33;;;;;;;;;;5034426;28;20208;-82
2022/04/16 08:43:41;;;;;;;11.73;4.53;;;;;;;;;;5029917;28;20235;-82
2022/04/16 08:46:10;;;;;;;8.20;4.67;;;;;;;;;;5034221;28;20484;-86
2022/04/16 08:48:38;;;;;;;9.07;4.50;;;;;;;;;;5030991;28;20502;-86
2022/04/16 08:51:05;;;;;;;9.67;4.17;;;;;;;;;;5029374;28;20530;-86
2022/04/16 08:53:32;;;;;;;8.40;4.00;;;;;;;;;;5029740;28;20667;-86
2022/04/16 08:55:59;;;;;;;6.43;4.00;;;;;;;;;;5030609;28;20283;-84
2022/04/16 08:58:27;;;;;;;6.57;3.70;;;;;;;;;;5028028;28;20212;-84
2022/04/16 09:00:54;;;;;;;6.37;3.70;;;;;;;;;;5029756;28;20267;-86
2022/04/16 09:03:22;;;;;;;7.47;3.50;;;;;;;;;;5030604;28;20290;-82
2022/04/16 09:05:55;;;;;;;8.33;4.50;;;;;;;;;;5033875;28;20921;-84
2022/04/16 09:08:28;;;;;;;9.00;4.97;;;;;;;;;;5037184;28;20210;-83
2022/04/16 09:11:06;;;;;;;13.97;6.50;;;;;;;;;;5038485;28;20208;-83
2022/04/16 09:13:33;;;;;;;6.73;4.00;;;;;;;;;;5031172;28;20260;-84
2022/04/16 09:16:04;;;;;;;6.73;4.07;;;;;;;;;;5037352;28;20211;-82
2022/04/16 09:18:45;;;;;;;6.93;3.83;;;;;;;;;;5036584;28;20238;-82
2022/04/16 09:21:13;;;;;;;8.63;4.03;;;;;;;;;;5033567;28;20212;-84
2022/04/16 09:23:45;;;;;;;7.37;3.50;;;;;;;;;;5034852;28;20236;-85
2022/04/16 09:26:12;;;;;;;7.73;3.63;;;;;;;;;;5030016;28;20211;-83
2022/04/16 09:28:44;;;;;;;8.13;3.87;;;;;;;;;;5027985;28;20207;-82
2022/04/16 09:31:12;;;;;;;5.33;3.00;;;;;;;;;;5039338;28;20295;-84
2022/04/16 09:36:09;;;;;;;6.90;3.13;;;;;;;;;;5050173;28;20203;-80
2022/04/16 09:38:37;;;;;;;4.90;2.83;;;;;;;;;;5061143;28;20297;-79
2022/04/16 09:41:08;;;;;;;5.50;3.43;;;;;;;;;;5061113;28;20246;-80
2022/04/16 09:43:36;;;;;;;5.53;2.73;;;;;;;;;;5057858;28;20304;-81
2022/04/16 09:46:18;;;;;;;5.03;2.33;;;;;;;;;;5076029;28;20646;-79
2022/04/16 09:48:47;;;;;;;5.93;2.70;;;;;;;;;;5061587;28;20195;-80
2022/04/16 09:51:16;;;;;;;6.73;2.73;;;;;;;;;;5062732;28;20214;-80
2022/04/16 09:53:47;;;;;;;4.70;2.60;;;;;;;;;;5056059;28;20223;-81
2022/04/16 09:56:16;;;;;;;4.67;2.23;;;;;;;;;;5060471;28;20237;-81
2022/04/16 09:58:49;;;;;;;4.67;2.60;;;;;;;;;;5054678;28;20198;-81
2022/04/16 10:01:16;;;;;;;4.53;2.10;;;;;;;;;;5063531;28;20230;-81
2022/04/16 10:03:47;;;;;;;5.60;2.10;;;;;;;;;;5062822;28;20214;-78
2022/04/16 10:06:16;;;;;;;3.17;1.87;;;;;;;;;;5074116;28;20770;-80
2022/04/16 10:08:44;;;;;;;5.33;2.30;;;;;;;;;;5068383;28;20208;-82
2022/04/16 10:11:19;;;;;;;3.77;1.97;;;;;;;;;;5060045;28;20723;-79
2022/04/16 10:13:50;;;;;;;4.77;2.00;;;;;;;;;;5062714;28;20222;-79
2022/04/16 10:16:21;;;;;;;2.83;1.50;;;;;;;;;;5060279;28;20293;-80
2022/04/16 10:18:49;;;;;;;3.23;1.50;;;;;;;;;;5061774;28;20229;-79
2022/04/16 10:21:19;;;;;;;3.60;1.10;;;;;;;;;;5061780;28;20242;-81
2022/04/16 10:23:49;;;;;;;3.63;1.50;;;;;;;;;;5055577;28;20202;-79
2022/04/16 10:26:17;;;;;;;3.20;1.30;;;;;;;;;;5057698;28;20534;-79
2022/04/16 10:28:45;;;;;;;2.47;1.53;;;;;;;;;;5061682;28;20199;-80
2022/04/16 10:31:22;;;;;;;2.97;1.50;;;;;;;;;;5055962;28;20306;-81
2022/04/16 10:33:59;;;;;;;3.10;1.50;;;;;;;;;;5058647;28;20225;-80
2022/04/16 10:36:32;;;;;;;3.03;1.60;;;;;;;;;;5059885;28;20266;-80
2022/04/16 10:39:01;;;;;;;2.77;1.50;;;;;;;;;;5062869;28;20245;-81
2022/04/16 10:41:29;;;;;;;3.90;1.90;;;;;;;;;;5056506;28;20221;-82
2022/04/16 10:43:59;;;;;;;4.13;1.60;;;;;;;;;;5055859;28;20195;-81
2022/04/16 10:46:40;;;;;;;4.03;1.97;;;;;;;;;;5057228;28;20207;-81
2022/04/16 10:49:09;;;;;;;5.10;2.10;;;;;;;;;;5057311;28;20240;-81
2022/04/16 10:51:39;;;;;;;3.00;1.67;;;;;;;;;;5057865;28;20221;-80
2022/04/16 10:54:10;;;;;;;3.83;1.90;;;;;;;;;;5054597;28;20222;-79
2022/04/16 10:56:39;;;;;;;4.00;1.83;;;;;;;;;;5055547;28;20206;-80
2022/04/16 10:59:07;;;;;;;3.83;1.90;;;;;;;;;;5057778;28;20235;-80
2022/04/16 11:01:34;;;;;;;8.53;2.80;;;;;;;;;;5054497;28;20230;-80
2022/04/16 11:04:12;;;;;;;3.27;1.87;;;;;;;;;;5059685;28;20354;-82
2022/04/16 11:06:44;;;;;;;3.40;1.80;;;;;;;;;;5056444;28;21356;-79
2022/04/16 11:09:13;;;;;;;4.03;1.90;;;;;;;;;;5064490;28;20214;-78
2022/04/16 11:11:41;;;;;;;2.77;1.43;;;;;;;;;;5069465;28;20242;-80
2022/04/16 11:14:09;;;;;;;4.23;1.90;;;;;;;;;;5057315;28;20272;-81
2022/04/16 11:16:43;;;;;;;7.60;2.47;;;;;;;;;;5052367;28;20202;-79
2022/04/16 11:19:13;;;;;;;3.73;1.70;;;;;;;;;;5061614;28;20213;-80
2022/04/16 11:21:42;;;;;;;3.80;2.20;;;;;;;;;;5055602;28;20223;-79
2022/04/16 11:24:09;;;;;;;4.07;2.13;;;;;;;;;;5058739;28;20302;-80
2022/04/16 11:35:03;;;;;;;3.73;1.90;;;;;;;;;;5054982;28;20209;-80
2022/04/16 11:37:32;;;;;;;2.97;1.47;;;;;;;;;;5051499;28;20214;-80
2022/04/16 11:40:00;;;;;;;6.67;2.57;;;;;;;;;;5049053;28;20257;-79
2022/04/16 11:42:28;;;;;;;4.03;1.60;;;;;;;;;;5050027;28;20706;-80
2022/04/16 11:44:58;;;;;;;4.50;1.73;;;;;;;;;;5044911;28;20214;-78
2022/04/16 11:47:26;;;;;;;4.07;1.67;;;;;;;;;;5045491;28;20252;-80
2022/04/16 11:49:54;;;;;;;2.73;1.60;;;;;;;;;;5053718;28;20271;-79
2022/04/16 11:52:25;;;;;;;7.37;1.73;;;;;;;;;;5054694;28;20336;-79
2022/04/16 11:55:02;;;;;;;6.23;1.70;;;;;;;;;;5053663;28;20207;-79
2022/04/16 11:57:29;;;;;;;4.90;2.00;;;;;;;;;;5053853;28;20317;-78
2022/04/16 11:59:59;;;;;;;2.67;1.40;;;;;;;;;;5052443;28;20231;-80
2022/04/16 12:02:33;;;;;;;2.77;1.50;;;;;;;;;;5055735;28;20207;-80
2022/04/16 12:05:10;;;;;;;3.00;1.40;;;;;;;;;;5047736;28;20260;-80
2022/04/16 12:07:38;;;;;;;2.27;1.60;;;;;;;;;;5055569;28;20301;-80
2022/04/16 12:10:07;;;;;;;2.63;1.50;;;;;;;;;;5057096;28;20821;-82
2022/04/16 12:12:47;;;;;;;3.03;1.63;;;;;;;;;;5060865;28;20210;-80
2022/04/16 12:15:20;;;;;;;1.90;1.20;;;;;;;;;;5054817;28;20215;-80
2022/04/16 12:17:47;;;;;;;6.47;1.47;;;;;;;;;;5074318;28;20202;-80
2022/04/16 12:20:14;;;;;;;2.70;1.20;;;;;;;;;;5077737;28;20229;-78
2022/04/16 12:22:48;;;;;;;2.60;1.37;;;;;;;;;;5067186;28;20202;-79
2022/04/16 12:25:18;;;;;;;4.47;1.50;;;;;;;;;;5074479;28;20260;-79
2022/04/16 12:27:46;;;;;;;2.03;1.00;;;;;;;;;;5067135;28;20207;-80
2022/04/16 12:30:14;;;;;;;3.73;1.20;;;;;;;;;;5066247;28;20215;-79
2022/04/16 12:32:41;;;;;;;2.00;0.90;;;;;;;;;;5072621;28;20661;-79
2022/04/16 12:35:09;;;;;;;3.10;0.83;;;;;;;;;;5068036;28;20217;-80
2022/04/16 12:37:37;;;;;;;3.47;1.03;;;;;;;;;;5069460;28;20225;-79
2022/04/16 12:40:06;;;;;;;1.70;1.20;;;;;;;;;;5071575;28;20237;-78
2022/04/16 12:42:35;;;;;;;2.30;1.23;;;;;;;;;;5075990;28;20210;-79
2022/04/16 12:45:03;;;;;;;2.13;1.03;;;;;;;;;;5065401;28;20203;-79
2022/04/16 12:47:31;;;;;;;3.27;0.90;;;;;;;;;;5068359;28;20218;-79
2022/04/16 12:49:58;;;;;;;2.10;0.87;;;;;;;;;;5068827;28;20230;-78
2022/04/16 12:52:25;;;;;;;2.43;1.00;;;;;;;;;;5063397;28;20220;-79
2022/04/16 12:54:53;;;;;;;1.87;0.93;;;;;;;;;;5062392;28;20230;-79
2022/04/16 12:57:20;;;;;;;2.83;1.00;;;;;;;;;;5071418;28;20224;-79
2022/04/16 12:59:49;;;;;;;2.70;1.23;;;;;;;;;;5072433;28;20203;-77
2022/04/16 13:02:17;;;;;;;1.77;0.90;;;;;;;;;;5077284;28;20214;-80
2022/04/16 13:04:44;;;;;;;8.10;1.50;;;;;;;;;;5065936;28;20214;-81
2022/04/16 13:07:11;;;;;;;1.20;0.90;;;;;;;;;;5068375;28;20222;-80
2022/04/16 13:09:38;;;;;;;1.77;0.97;;;;;;;;;;5068274;28;20657;-81
2022/04/16 13:12:06;;;;;;;4.73;1.20;;;;;;;;;;5066305;28;20641;-80
2022/04/16 13:14:34;;;;;;;1.23;0.70;;;;;;;;;;5068972;28;20248;-81
2022/04/16 13:17:03;;;;;;;3.77;0.77;;;;;;;;;;5074258;28;20240;-80
2022/04/16 13:19:31;;;;;;;3.33;0.80;;;;;;;;;;5065569;28;20233;-81
2022/04/16 13:21:58;;;;;;;2.70;0.93;;;;;;;;;;5066567;28;20345;-80
2022/04/16 13:24:25;;;;;;;4.40;0.97;;;;;;;;;;5075763;28;20209;-80
2022/04/16 13:26:53;;;;;;;2.50;0.80;;;;;;;;;;5076069;28;20206;-79
2022/04/16 13:29:20;;;;;;;1.07;0.70;;;;;;;;;;5070803;28;20207;-80
2022/04/16 13:31:47;;;;;;;2.90;1.10;;;;;;;;;;5071594;28;20290;-80
2022/04/16 13:34:17;;;;;;;1.00;0.70;;;;;;;;;;5071774;28;20246;-81
2022/04/16 13:36:44;;;;;;;2.70;0.77;;;;;;;;;;5071039;28;20207;-80
2022/04/16 13:41:57;;;;;;;3.20;1.77;;;;;;;;;;5060138;28;20227;-79
2022/04/16 13:44:24;;;;;;;2.90;0.70;;;;;;;;;;5064121;28;20209;-80
2022/04/16 13:46:53;;;;;;;2.23;0.90;;;;;;;;;;5062141;28;20742;-80
2022/04/16 13:49:21;;;;;;;1.17;0.83;;;;;;;;;;5058684;28;20241;-79
2022/04/16 13:51:49;;;;;;;2.10;1.07;;;;;;;;;;5055490;28;20232;-79
2022/04/16 13:54:16;;;;;;;1.37;0.80;;;;;;;;;;5057195;28;20219;-79
2022/04/16 13:56:43;;;;;;;1.03;0.80;;;;;;;;;;5054288;28;20204;-79
2022/04/16 13:59:11;;;;;;;1.17;0.60;;;;;;;;;;5059894;28;20296;-80
2022/04/16 14:01:38;;;;;;;0.97;0.60;;;;;;;;;;5057430;28;20238;-80
2022/04/16 14:04:06;;;;;;;1.20;0.70;;;;;;;;;;5070230;28;20210;-80
2022/04/16 14:06:34;;;;;;;3.53;0.80;;;;;;;;;;5067128;28;20203;-80
2022/04/16 14:09:02;;;;;;;3.60;0.60;;;;;;;;;;5061279;28;20231;-79
2022/04/16 14:11:29;;;;;;;1.03;0.60;;;;;;;;;;5065630;28;20234;-79
2022/04/16 14:13:56;;;;;;;1.10;0.53;;;;;;;;;;5063805;28;20259;-80
2022/04/16 14:16:24;;;;;;;1.53;0.70;;;;;;;;;;5061765;28;20222;-81
2022/04/16 14:18:51;;;;;;;2.93;0.70;;;;;;;;;;5065311;28;20552;-81
2022/04/16 14:21:18;;;;;;;1.23;0.67;;;;;;;;;;5063505;28;20233;-79
2022/04/16 14:23:47;;;;;;;1.73;0.80;;;;;;;;;;5066813;28;20793;-79
2022/04/16 14:26:14;;;;;;;2.30;0.70;;;;;;;;;;5068309;28;20202;-79
2022/04/16 14:28:42;;;;;;;1.23;0.57;;;;;;;;;;5070519;28;20207;-79
2022/04/16 14:31:10;;;;;;;1.20;0.70;;;;;;;;;;5078369;28;20571;-81
2022/04/16 14:33:38;;;;;;;0.67;0.53;;;;;;;;;;5067397;28;20227;-80
2022/04/16 14:36:06;;;;;;;0.80;0.67;;;;;;;;;;5062051;28;20729;-81
2022/04/16 14:38:37;;;;;;;2.37;0.73;;;;;;;;;;5060034;28;20289;-81
2022/04/16 14:41:13;;;;;;;4.40;1.00;;;;;;;;;;5059914;28;20261;-79
2022/04/16 14:43:43;;;;;;;3.70;0.60;;;;;;;;;;5064765;28;20457;-80
2022/04/16 14:46:10;;;;;;;0.90;0.50;;;;;;;;;;5066350;28;20676;-80
2022/04/16 14:48:38;;;;;;;2.60;0.77;;;;;;;;;;5063871;28;20203;-80
2022/04/16 14:51:05;;;;;;;0.53;0.50;;;;;;;;;;5058648;28;20284;-79
2022/04/16 14:53:32;;;;;;;2.27;0.50;;;;;;;;;;5062988;28;20223;-79
2022/04/16 14:56:00;;;;;;;1.50;0.70;;;;;;;;;;5062103;28;20704;-79
2022/04/16 14:58:30;;;;;;;0.67;0.60;;;;;;;;;;5068033;28;20649;-79
2022/04/16 15:00:59;;;;;;;0.90;0.50;;;;;;;;;;5069282;28;20649;-79
2022/04/16 15:03:38;;;;;;;0.90;0.70;;;;;;;;;;5065131;28;20240;-78
2022/04/16 15:06:05;;;;;;;1.27;0.70;;;;;;;;;;5068631;28;20211;-78
2022/04/16 15:08:32;;;;;;;2.00;0.70;;;;;;;;;;5059296;28;20320;-79
2022/04/16 15:11:00;;;;;;;0.80;0.50;;;;;;;;;;5062354;28;20234;-79
2022/04/16 15:13:29;;;;;;;0.80;0.60;;;;;;;;;;5061474;28;20352;-80
2022/04/16 15:15:56;;;;;;;4.30;0.97;;;;;;;;;;5060216;28;20233;-79